sensor_id;sensor_type;location;lat;lon;timestamp;pressure;altitude;pressure_sealevel;temperature;humidity
21109;BME280;10712;52.944;9.098;2023-04-30T00:01:08;102234.13;;;14.20;47.86
21109;BME280;10712;52.944;9.098;2023-04-30T00:03:34;102236.66;;;14.23;48.00
21109;BME280;10712;52.944;9.098;2023-04-30T00:06:00;102236.72;;;14.22;47.85
21109;BME280;10712;52.944;9.098;2023-04-30T00:08:26;102235.91;;;14.19;47.91
21109;BME280;10712;52.944;9.098;2023-04-30T00:10:51;102239.72;;;14.15;47.91
21109;BME280;10712;52.944;9.098;2023-04-30T00:13:17;102242.53;;;14.12;48.06
21109;BME280;10712;52.944;9.098;2023-04-30T00:15:43;102236.41;;;14.10;48.16
21109;BME280;10712;52.944;9.098;2023-04-30T00:18:10;102243.63;;;14.08;48.26
21109;BME280;10712;52.944;9.098;2023-04-30T00:20:36;102243.84;;;14.04;48.19
21109;BME280;10712;52.944;9.098;2023-04-30T00:23:02;102240.47;;;14.00;48.12
21109;BME280;10712;52.944;9.098;2023-04-30T00:25:27;102244.00;;;14.01;48.33
21109;BME280;10712;52.944;9.098;2023-04-30T00:27:53;102244.81;;;14.03;48.32
21109;BME280;10712;52.944;9.098;2023-04-30T00:30:19;102243.00;;;14.03;48.24
21109;BME280;10712;52.944;9.098;2023-04-30T00:32:45;102255.66;;;14.00;48.24
21109;BME280;10712;52.944;9.098;2023-04-30T00:35:11;102253.06;;;13.98;48.32
21109;BME280;10712;52.944;9.098;2023-04-30T00:37:37;102261.91;;;14.00;48.35
21109;BME280;10712;52.944;9.098;2023-04-30T00:40:03;102253.91;;;13.99;48.58
21109;BME280;10712;52.944;9.098;2023-04-30T00:42:29;102263.78;;;13.98;48.49
21109;BME280;10712;52.944;9.098;2023-04-30T00:44:55;102268.19;;;13.99;48.69
21109;BME280;10712;52.944;9.098;2023-04-30T00:47:21;102268.44;;;13.95;48.93
21109;BME280;10712;52.944;9.098;2023-04-30T00:49:47;102264.06;;;13.92;49.05
21109;BME280;10712;52.944;9.098;2023-04-30T00:52:13;102271.31;;;13.90;49.00
21109;BME280;10712;52.944;9.098;2023-04-30T00:54:40;102266.97;;;13.88;49.14
21109;BME280;10712;52.944;9.098;2023-04-30T00:57:08;102266.09;;;13.87;49.01
21109;BME280;10712;52.944;9.098;2023-04-30T00:59:37;102271.69;;;13.83;49.15
21109;BME280;10712;52.944;9.098;2023-04-30T01:02:03;102268.28;;;13.79;49.24
21109;BME280;10712;52.944;9.098;2023-04-30T01:04:30;102270.31;;;13.74;49.44
21109;BME280;10712;52.944;9.098;2023-04-30T01:06:56;102267.69;;;13.72;49.32
21109;BME280;10712;52.944;9.098;2023-04-30T01:09:23;102279.41;;;13.70;49.48
21109;BME280;10712;52.944;9.098;2023-04-30T01:12:08;102265.38;;;13.65;49.41
21109;BME280;10712;52.944;9.098;2023-04-30T01:17:54;102269.88;;;13.64;49.40
21109;BME280;10712;52.944;9.098;2023-04-30T01:20:23;102277.97;;;13.63;49.19
21109;BME280;10712;52.944;9.098;2023-04-30T01:23:08;102278.13;;;13.60;49.28
21109;BME280;10712;52.944;9.098;2023-04-30T01:28:26;102269.28;;;13.58;49.18
21109;BME280;10712;52.944;9.098;2023-04-30T01:30:54;102278.25;;;13.57;49.07
21109;BME280;10712;52.944;9.098;2023-04-30T01:33:20;102278.25;;;13.57;49.07
21109;BME280;10712;52.944;9.098;2023-04-30T01:36:31;102273.06;;;13.54;48.96
21109;BME280;10712;52.944;9.098;2023-04-30T01:50:45;102289.94;;;13.35;48.48
21109;BME280;10712;52.944;9.098;2023-04-30T01:53:31;102284.88;;;13.29;48.85
21109;BME280;10712;52.944;9.098;2023-04-30T01:56:09;102292.25;;;13.24;48.92
21109;BME280;10712;52.944;9.098;2023-04-30T01:58:37;102287.16;;;13.18;48.67
21109;BME280;10712;52.944;9.098;2023-04-30T02:01:04;102289.91;;;13.17;48.89
21109;BME280;10712;52.944;9.098;2023-04-30T02:03:32;102285.44;;;13.17;48.55
21109;BME280;10712;52.944;9.098;2023-04-30T02:05:58;102292.63;;;13.15;48.83
21109;BME280;10712;52.944;9.098;2023-04-30T02:08:24;102300.78;;;13.12;48.74
21109;BME280;10712;52.944;9.098;2023-04-30T02:10:50;102303.59;;;13.09;48.71
21109;BME280;10712;52.944;9.098;2023-04-30T02:13:15;102306.53;;;13.03;48.36
21109;BME280;10712;52.944;9.098;2023-04-30T02:15:41;102307.63;;;12.99;48.35
21109;BME280;10712;52.944;9.098;2023-04-30T02:18:07;102315.75;;;12.96;48.42
21109;BME280;10712;52.944;9.098;2023-04-30T02:20:33;102304.47;;;12.89;48.37
21109;BME280;10712;52.944;9.098;2023-04-30T02:22:59;102302.72;;;12.88;48.60
21109;BME280;10712;52.944;9.098;2023-04-30T02:25:25;102299.16;;;12.88;48.69
21109;BME280;10712;52.944;9.098;2023-04-30T02:27:51;102300.91;;;12.89;48.57
21109;BME280;10712;52.944;9.098;2023-04-30T02:30:17;102305.66;;;12.82;48.78
21109;BME280;10712;52.944;9.098;2023-04-30T02:32:46;102296.97;;;12.77;48.58
21109;BME280;10712;52.944;9.098;2023-04-30T02:35:12;102309.53;;;12.75;48.87
21109;BME280;10712;52.944;9.098;2023-04-30T02:37:38;102306.91;;;12.74;48.86
21109;BME280;10712;52.944;9.098;2023-04-30T02:40:05;102307.06;;;12.71;48.71
21109;BME280;10712;52.944;9.098;2023-04-30T02:42:31;102306.34;;;12.66;48.55
21109;BME280;10712;52.944;9.098;2023-04-30T02:44:57;102309.19;;;12.62;48.46
21109;BME280;10712;52.944;9.098;2023-04-30T02:47:22;102309.28;;;12.59;48.47
21109;BME280;10712;52.944;9.098;2023-04-30T02:49:48;102309.53;;;12.53;48.51
21109;BME280;10712;52.944;9.098;2023-04-30T02:52:14;102314.34;;;12.45;48.34
21109;BME280;10712;52.944;9.098;2023-04-30T02:54:40;102310.06;;;12.41;48.30
21109;BME280;10712;52.944;9.098;2023-04-30T02:57:06;102319.16;;;12.37;48.32
21109;BME280;10712;52.944;9.098;2023-04-30T02:59:31;102324.59;;;12.34;48.13
21109;BME280;10712;52.944;9.098;2023-04-30T03:01:57;102323.00;;;12.30;48.16
21109;BME280;10712;52.944;9.098;2023-04-30T03:04:23;102319.50;;;12.28;48.24
21109;BME280;10712;52.944;9.098;2023-04-30T03:06:49;102323.13;;;12.27;48.24
21109;BME280;10712;52.944;9.098;2023-04-30T03:09:15;102321.25;;;12.29;48.08
21109;BME280;10712;52.944;9.098;2023-04-30T03:11:41;102319.63;;;12.25;48.10
21109;BME280;10712;52.944;9.098;2023-04-30T03:14:07;102323.22;;;12.24;48.13
21109;BME280;10712;52.944;9.098;2023-04-30T03:16:33;102319.88;;;12.19;47.88
21109;BME280;10712;52.944;9.098;2023-04-30T03:18:59;102321.72;;;12.17;48.10
21109;BME280;10712;52.944;9.098;2023-04-30T03:21:25;102322.78;;;12.13;48.12
21109;BME280;10712;52.944;9.098;2023-04-30T03:23:51;102321.03;;;12.12;48.22
21109;BME280;10712;52.944;9.098;2023-04-30T03:26:18;102320.47;;;12.04;48.35
21109;BME280;10712;52.944;9.098;2023-04-30T03:28:43;102327.69;;;12.02;48.24
21109;BME280;10712;52.944;9.098;2023-04-30T03:31:09;102327.69;;;12.02;48.09
21109;BME280;10712;52.944;9.098;2023-04-30T03:33:35;102324.75;;;11.38;49.51
21109;BME280;10712;52.944;9.098;2023-04-30T03:36:01;102320.03;;;11.93;48.56
21109;BME280;10712;52.944;9.098;2023-04-30T03:38:27;102329.31;;;12.06;47.96
21109;BME280;10712;52.944;9.098;2023-04-30T03:40:53;102327.44;;;12.08;48.00
21109;BME280;10712;52.944;9.098;2023-04-30T03:43:18;102320.47;;;12.04;47.90
21109;BME280;10712;52.944;9.098;2023-04-30T03:45:44;102328.47;;;12.04;47.93
21109;BME280;10712;52.944;9.098;2023-04-30T03:48:11;102333.34;;;11.21;49.87
21109;BME280;10712;52.944;9.098;2023-04-30T03:50:36;102335.28;;;11.41;49.53
21109;BME280;10712;52.944;9.098;2023-04-30T03:53:02;102328.09;;;11.68;48.71
21109;BME280;10712;52.944;9.098;2023-04-30T03:55:28;102329.69;;;11.72;48.64
21109;BME280;10712;52.944;9.098;2023-04-30T03:57:54;102336.88;;;11.70;48.80
21109;BME280;10712;52.944;9.098;2023-04-30T04:00:21;102332.41;;;11.70;48.70
21109;BME280;10712;52.944;9.098;2023-04-30T04:02:51;102329.69;;;11.72;48.68
21109;BME280;10712;52.944;9.098;2023-04-30T04:05:16;102334.09;;;11.74;48.77
21109;BME280;10712;52.944;9.098;2023-04-30T04:07:43;102332.22;;;11.76;48.84
21109;BME280;10712;52.944;9.098;2023-04-30T04:10:10;102333.22;;;11.74;48.98
21109;BME280;10712;52.944;9.098;2023-04-30T04:12:35;102336.78;;;11.74;48.69
21109;BME280;10712;52.944;9.098;2023-04-30T04:15:01;102343.00;;;11.73;48.85
21109;BME280;10712;52.944;9.098;2023-04-30T04:17:28;102343.00;;;11.73;48.74
21109;BME280;10712;52.944;9.098;2023-04-30T04:19:54;102347.47;;;11.73;48.86
21109;BME280;10712;52.944;9.098;2023-04-30T04:22:20;102343.09;;;11.70;48.88
21109;BME280;10712;52.944;9.098;2023-04-30T04:24:46;102340.56;;;11.67;48.92
21109;BME280;10712;52.944;9.098;2023-04-30T04:27:17;102343.09;;;11.70;48.94
21109;BME280;10712;52.944;9.098;2023-04-30T04:29:43;102351.06;;;11.72;49.16
21109;BME280;10712;52.944;9.098;2023-04-30T04:32:11;102348.31;;;11.75;49.24
21109;BME280;10712;52.944;9.098;2023-04-30T04:34:39;102357.28;;;11.72;49.40
21109;BME280;10712;52.944;9.098;2023-04-30T04:37:05;102348.34;;;11.73;49.25
21109;BME280;10712;52.944;9.098;2023-04-30T04:39:31;102363.28;;;11.79;49.36
21109;BME280;10712;52.944;9.098;2023-04-30T04:41:56;102356.00;;;11.82;49.57
21109;BME280;10712;52.944;9.098;2023-04-30T04:44:23;102356.00;;;11.82;49.63
21109;BME280;10712;52.944;9.098;2023-04-30T04:46:49;102363.91;;;11.86;49.54
21109;BME280;10712;52.944;9.098;2023-04-30T04:49:18;102366.53;;;11.87;49.63
21109;BME280;10712;52.944;9.098;2023-04-30T04:51:44;102364.63;;;11.91;49.80
21109;BME280;10712;52.944;9.098;2023-04-30T04:54:10;102374.28;;;11.95;49.86
21109;BME280;10712;52.944;9.098;2023-04-30T04:56:36;102376.13;;;12.16;49.17
21109;BME280;10712;52.944;9.098;2023-04-30T04:59:02;102379.78;;;12.13;49.39
21109;BME280;10712;52.944;9.098;2023-04-30T05:01:28;102376.56;;;12.04;49.64
21109;BME280;10712;52.944;9.098;2023-04-30T05:03:54;102380.28;;;12.00;49.72
21109;BME280;10712;52.944;9.098;2023-04-30T05:06:20;102375.78;;;12.02;49.94
21109;BME280;10712;52.944;9.098;2023-04-30T05:08:45;102388.91;;;12.08;49.84
21109;BME280;10712;52.944;9.098;2023-04-30T05:11:11;102395.75;;;12.15;50.05
21109;BME280;10712;52.944;9.098;2023-04-30T05:13:37;102394.69;;;12.19;50.07
21109;BME280;10712;52.944;9.098;2023-04-30T05:16:03;102399.94;;;12.22;50.05
21109;BME280;10712;52.944;9.098;2023-04-30T05:18:29;102403.28;;;12.27;50.43
21109;BME280;10712;52.944;9.098;2023-04-30T05:20:55;102399.97;;;11.97;51.47
21109;BME280;10712;52.944;9.098;2023-04-30T05:23:20;102405.44;;;11.94;51.75
21109;BME280;10712;52.944;9.098;2023-04-30T05:25:51;102409.69;;;12.00;52.07
21109;BME280;10712;52.944;9.098;2023-04-30T05:28:17;102405.84;;;12.07;52.01
21109;BME280;10712;52.944;9.098;2023-04-30T05:30:43;102410.09;;;12.12;52.18
21109;BME280;10712;52.944;9.098;2023-04-30T05:33:09;102413.44;;;12.17;52.35
21109;BME280;10712;52.944;9.098;2023-04-30T05:35:36;102416.75;;;12.24;52.64
21109;BME280;10712;52.944;9.098;2023-04-30T05:38:02;102415.59;;;12.31;52.66
21109;BME280;10712;52.944;9.098;2023-04-30T05:40:28;102410.16;;;12.78;51.70
21109;BME280;10712;52.944;9.098;2023-04-30T05:42:55;102420.34;;;12.90;51.69
21109;BME280;10712;52.944;9.098;2023-04-30T05:45:21;102421.84;;;12.97;51.85
21109;BME280;10712;52.944;9.098;2023-04-30T05:47:46;102416.22;;;13.03;52.05
21109;BME280;10712;52.944;9.098;2023-04-30T05:50:12;102408.75;;;13.11;52.07
21109;BME280;10712;52.944;9.098;2023-04-30T05:52:38;102414.59;;;13.21;52.08
21109;BME280;10712;52.944;9.098;2023-04-30T05:55:05;102418.69;;;13.29;52.14
21109;BME280;10712;52.944;9.098;2023-04-30T05:57:31;102421.94;;;13.37;52.12
21109;BME280;10712;52.944;9.098;2023-04-30T05:59:57;102428.75;;;13.45;52.38
21109;BME280;10712;52.944;9.098;2023-04-30T06:02:22;102424.75;;;13.55;52.22
21109;BME280;10712;52.944;9.098;2023-04-30T06:04:48;102423.41;;;13.65;52.35
21109;BME280;10712;52.944;9.098;2023-04-30T06:07:14;102417.81;;;13.69;52.21
21109;BME280;10712;52.944;9.098;2023-04-30T06:09:40;102419.28;;;13.76;52.24
21109;BME280;10712;52.944;9.098;2023-04-30T06:12:06;102423.38;;;13.85;52.34
21109;BME280;10712;52.944;9.098;2023-04-30T06:14:32;102418.59;;;13.92;52.10
21109;BME280;10712;52.944;9.098;2023-04-30T06:16:57;102423.63;;;13.99;52.26
21109;BME280;10712;52.944;9.098;2023-04-30T06:19:23;102430.44;;;14.06;52.22
21109;BME280;10712;52.944;9.098;2023-04-30T06:21:49;102421.81;;;14.18;52.17
21109;BME280;10712;52.944;9.098;2023-04-30T06:24:15;102432.25;;;14.25;52.00
21109;BME280;10712;52.944;9.098;2023-04-30T06:26:41;102429.16;;;14.34;51.84
21109;BME280;10712;52.944;9.098;2023-04-30T06:29:07;102433.19;;;14.44;51.83
21109;BME280;10712;52.944;9.098;2023-04-30T06:31:32;102429.25;;;14.51;51.75
21109;BME280;10712;52.944;9.098;2023-04-30T06:33:58;102437.78;;;14.59;51.75
21109;BME280;10712;52.944;9.098;2023-04-30T06:36:24;102433.72;;;14.69;51.56
21109;BME280;10712;52.944;9.098;2023-04-30T06:38:50;102435.50;;;14.87;50.95
21109;BME280;10712;52.944;9.098;2023-04-30T06:41:15;102435.50;;;14.87;50.76
21109;BME280;10712;52.944;9.098;2023-04-30T06:43:43;102439.63;;;14.94;50.61
21109;BME280;10712;52.944;9.098;2023-04-30T06:46:09;102430.31;;;15.02;50.34
21109;BME280;10712;52.944;9.098;2023-04-30T06:48:35;102437.94;;;15.11;50.14
21109;BME280;10712;52.944;9.098;2023-04-30T06:51:01;102432.59;;;15.28;49.60
21109;BME280;10712;52.944;9.098;2023-04-30T06:53:27;102428.94;;;15.29;48.98
21109;BME280;10712;52.944;9.098;2023-04-30T06:55:53;102429.66;;;15.32;48.73
21109;BME280;10712;52.944;9.098;2023-04-30T06:58:19;102423.91;;;15.40;48.47
21109;BME280;10712;52.944;9.098;2023-04-30T07:00:45;102434.31;;;15.46;48.23
21109;BME280;10712;52.944;9.098;2023-04-30T07:03:11;102435.59;;;15.56;47.69
21109;BME280;10712;52.944;9.098;2023-04-30T07:05:37;102436.25;;;15.61;47.16
21109;BME280;10712;52.944;9.098;2023-04-30T07:08:03;102434.16;;;15.66;46.54
21109;BME280;10712;52.944;9.098;2023-04-30T07:10:30;102439.06;;;15.75;46.20
21109;BME280;10712;52.944;9.098;2023-04-30T07:12:56;102435.47;;;15.92;45.95
21109;BME280;10712;52.944;9.098;2023-04-30T07:15:22;102434.44;;;15.95;45.44
21109;BME280;10712;52.944;9.098;2023-04-30T07:17:48;102436.66;;;16.04;45.32
21109;BME280;10712;52.944;9.098;2023-04-30T07:20:14;102433.63;;;16.10;44.95
21109;BME280;10712;52.944;9.098;2023-04-30T07:22:42;102434.03;;;16.18;44.64
21109;BME280;10712;52.944;9.098;2023-04-30T07:25:12;102430.84;;;16.27;44.31
21109;BME280;10712;52.944;9.098;2023-04-30T07:27:38;102429.91;;;16.28;43.90
21109;BME280;10712;52.944;9.098;2023-04-30T07:30:07;102430.84;;;16.27;43.78
21109;BME280;10712;52.944;9.098;2023-04-30T07:32:36;102434.16;;;16.32;43.53
21109;BME280;10712;52.944;9.098;2023-04-30T07:35:03;102424.72;;;16.41;43.30
21109;BME280;10712;52.944;9.098;2023-04-30T07:37:29;102428.44;;;16.54;43.29
21109;BME280;10712;52.944;9.098;2023-04-30T07:39:55;102433.66;;;16.41;43.91
21109;BME280;10712;52.944;9.098;2023-04-30T07:42:21;102431.47;;;16.32;44.04
21109;BME280;10712;52.944;9.098;2023-04-30T07:44:47;102430.50;;;16.33;43.76
21109;BME280;10712;52.944;9.098;2023-04-30T07:47:13;102434.00;;;16.35;43.57
21109;BME280;10712;52.944;9.098;2023-04-30T07:49:39;102440.16;;;16.37;43.24
21109;BME280;10712;52.944;9.098;2023-04-30T07:52:05;102436.84;;;16.32;42.11
21109;BME280;10712;52.944;9.098;2023-04-30T07:54:36;102438.94;;;16.43;42.50
21109;BME280;10712;52.944;9.098;2023-04-30T07:57:04;102439.31;;;17.00;41.81
21109;BME280;10712;52.944;9.098;2023-04-30T07:59:30;102429.63;;;17.11;41.57
21109;BME280;10712;52.944;9.098;2023-04-30T08:01:56;102434.03;;;17.28;41.51
21109;BME280;10712;52.944;9.098;2023-04-30T08:04:22;102440.53;;;17.40;41.52
21109;BME280;10712;52.944;9.098;2023-04-30T08:06:48;102440.88;;;17.33;40.91
21109;BME280;10712;52.944;9.098;2023-04-30T08:09:13;102434.75;;;17.46;39.90
21109;BME280;10712;52.944;9.098;2023-04-30T08:11:40;102442.56;;;17.50;39.94
21109;BME280;10712;52.944;9.098;2023-04-30T08:14:06;102439.97;;;17.49;40.06
21109;BME280;10712;52.944;9.098;2023-04-30T08:16:32;102442.56;;;17.50;40.14
21109;BME280;10712;52.944;9.098;2023-04-30T08:18:58;102444.69;;;17.59;40.26
21109;BME280;10712;52.944;9.098;2023-04-30T08:21:25;102444.94;;;17.70;40.33
21109;BME280;10712;52.944;9.098;2023-04-30T08:23:53;102456.97;;;17.65;40.56
21109;BME280;10712;52.944;9.098;2023-04-30T08:26:19;102445.44;;;17.77;40.51
21109;BME280;10712;52.944;9.098;2023-04-30T08:28:45;102447.06;;;17.50;40.94
21109;BME280;10712;52.944;9.098;2023-04-30T08:31:12;102446.06;;;17.37;41.33
21109;BME280;10712;52.944;9.098;2023-04-30T08:33:37;102441.19;;;17.43;41.15
21109;BME280;10712;52.944;9.098;2023-04-30T08:36:03;102446.50;;;17.45;40.60
21109;BME280;10712;52.944;9.098;2023-04-30T08:38:29;102441.50;;;17.53;40.11
21109;BME280;10712;52.944;9.098;2023-04-30T08:43:33;102443.72;;;17.76;39.56
21109;BME280;10712;52.944;9.098;2023-04-30T08:46:00;102448.13;;;17.63;39.80
21109;BME280;10712;52.944;9.098;2023-04-30T08:48:28;102445.84;;;17.55;40.44
21109;BME280;10712;52.944;9.098;2023-04-30T08:50:54;102445.00;;;17.55;40.43
21109;BME280;10712;52.944;9.098;2023-04-30T08:53:21;102446.53;;;17.59;40.39
21109;BME280;10712;52.944;9.098;2023-04-30T08:55:47;102442.94;;;17.74;40.14
21109;BME280;10712;52.944;9.098;2023-04-30T08:58:13;102435.81;;;17.87;38.89
21109;BME280;10712;52.944;9.098;2023-04-30T09:00:39;102440.28;;;18.02;38.55
21109;BME280;10712;52.944;9.098;2023-04-30T09:03:06;102439.66;;;18.26;37.25
21109;BME280;10712;52.944;9.098;2023-04-30T09:05:32;102434.97;;;18.29;37.33
21109;BME280;10712;52.944;9.098;2023-04-30T09:07:58;102442.19;;;18.29;37.47
21109;BME280;10712;52.944;9.098;2023-04-30T09:10:24;102433.13;;;17.87;38.16
21109;BME280;10712;52.944;9.098;2023-04-30T09:13:06;102431.31;;;18.02;38.52
21109;BME280;10712;52.944;9.098;2023-04-30T09:15:35;102439.31;;;18.03;38.56
21109;BME280;10712;52.944;9.098;2023-04-30T09:18:16;102427.72;;;18.30;37.86
21109;BME280;10712;52.944;9.098;2023-04-30T09:21:00;102427.50;;;18.47;37.76
21109;BME280;10712;52.944;9.098;2023-04-30T09:23:28;102434.00;;;18.59;37.87
21109;BME280;10712;52.944;9.098;2023-04-30T09:25:55;102424.97;;;18.72;37.51
21109;BME280;10712;52.944;9.098;2023-04-30T09:28:22;102430.84;;;18.79;37.23
21109;BME280;10712;52.944;9.098;2023-04-30T09:30:50;102425.31;;;18.95;36.35
21109;BME280;10712;52.944;9.098;2023-04-30T09:33:17;102422.81;;;19.04;36.64
21109;BME280;10712;52.944;9.098;2023-04-30T09:35:43;102424.22;;;18.97;36.80
21109;BME280;10712;52.944;9.098;2023-04-30T09:38:31;102428.88;;;18.81;37.23
21109;BME280;10712;52.944;9.098;2023-04-30T09:40:59;102431.50;;;18.82;37.10
21109;BME280;10712;52.944;9.098;2023-04-30T09:43:29;102422.72;;;19.06;36.02
21109;BME280;10712;52.944;9.098;2023-04-30T09:45:58;102421.91;;;19.18;34.47
21109;BME280;10712;52.944;9.098;2023-04-30T09:48:26;102414.97;;;19.14;34.29
21109;BME280;10712;52.944;9.098;2023-04-30T09:50:52;102409.34;;;19.17;34.66
21109;BME280;10712;52.944;9.098;2023-04-30T09:53:19;102412.22;;;19.28;35.55
21109;BME280;10712;52.944;9.098;2023-04-30T09:55:50;102409.19;;;19.45;35.62
21109;BME280;10712;52.944;9.098;2023-04-30T09:58:17;102415.50;;;19.58;35.51
21109;BME280;10712;52.944;9.098;2023-04-30T10:00:49;102404.25;;;19.64;35.10
21109;BME280;10712;52.944;9.098;2023-04-30T10:03:15;102403.00;;;19.70;35.90
21109;BME280;10712;52.944;9.098;2023-04-30T10:05:44;102392.59;;;19.77;35.34
21109;BME280;10712;52.944;9.098;2023-04-30T10:08:43;102391.84;;;19.75;35.68
21109;BME280;10712;52.944;9.098;2023-04-30T10:11:17;102388.47;;;19.71;35.59
21109;BME280;10712;52.944;9.098;2023-04-30T10:13:53;102388.03;;;19.64;35.95
21109;BME280;10712;52.944;9.098;2023-04-30T10:16:46;102390.63;;;19.79;36.18
21109;BME280;10712;52.944;9.098;2023-04-30T10:19:24;102383.28;;;19.93;35.75
21109;BME280;10712;52.944;9.098;2023-04-30T10:21:51;102378.84;;;20.05;36.11
21109;BME280;10712;52.944;9.098;2023-04-30T10:24:19;102379.88;;;20.15;35.16
21109;BME280;10712;52.944;9.098;2023-04-30T10:26:47;102382.81;;;20.25;34.47
21109;BME280;10712;52.944;9.098;2023-04-30T10:29:15;102384.09;;;20.32;34.52
21109;BME280;10712;52.944;9.098;2023-04-30T10:31:46;102375.66;;;20.36;34.33
21109;BME280;10712;52.944;9.098;2023-04-30T10:35:07;102380.84;;;20.39;34.60
21109;BME280;10712;52.944;9.098;2023-04-30T10:37:50;102381.88;;;20.50;34.29
21109;BME280;10712;52.944;9.098;2023-04-30T10:40:18;102383.31;;;20.42;34.04
21109;BME280;10712;52.944;9.098;2023-04-30T10:42:46;102376.94;;;20.43;34.06
21109;BME280;10712;52.944;9.098;2023-04-30T10:45:14;102370.06;;;20.51;33.69
21109;BME280;10712;52.944;9.098;2023-04-30T10:47:44;102371.72;;;20.53;33.05
21109;BME280;10712;52.944;9.098;2023-04-30T10:50:12;102366.91;;;20.57;33.51
21109;BME280;10712;52.944;9.098;2023-04-30T10:52:38;102358.00;;;20.67;33.65
21109;BME280;10712;52.944;9.098;2023-04-30T10:55:07;102359.41;;;20.84;33.93
21109;BME280;10712;52.944;9.098;2023-04-30T10:57:51;102359.25;;;21.09;33.53
21109;BME280;10712;52.944;9.098;2023-04-30T11:00:25;102358.75;;;21.28;33.37
21109;BME280;10712;52.944;9.098;2023-04-30T11:02:57;102361.09;;;21.33;32.92
21109;BME280;10712;52.944;9.098;2023-04-30T11:05:37;102350.63;;;21.39;32.31
21109;BME280;10712;52.944;9.098;2023-04-30T11:08:03;102352.75;;;21.47;32.07
21109;BME280;10712;52.944;9.098;2023-04-30T11:10:34;102355.94;;;21.52;32.65
21109;BME280;10712;52.944;9.098;2023-04-30T11:13:05;102356.91;;;21.40;33.06
21109;BME280;10712;52.944;9.098;2023-04-30T11:15:44;102340.19;;;21.11;33.55
21109;BME280;10712;52.944;9.098;2023-04-30T11:18:12;102339.75;;;20.93;34.31
21109;BME280;10712;52.944;9.098;2023-04-30T11:20:40;102339.75;;;20.93;32.72
21109;BME280;10712;52.944;9.098;2023-04-30T11:23:16;102342.69;;;20.90;33.26
21109;BME280;10712;52.944;9.098;2023-04-30T11:25:46;102342.97;;;20.98;33.60
21109;BME280;10712;52.944;9.098;2023-04-30T11:28:26;102345.41;;;20.90;33.27
21109;BME280;10712;52.944;9.098;2023-04-30T11:30:57;102344.19;;;20.94;33.72
21109;BME280;10712;52.944;9.098;2023-04-30T11:33:26;102345.41;;;20.90;33.80
21109;BME280;10712;52.944;9.098;2023-04-30T11:35:54;102347.72;;;20.83;34.02
21109;BME280;10712;52.944;9.098;2023-04-30T11:38:34;102336.88;;;20.83;33.94
21109;BME280;10712;52.944;9.098;2023-04-30T11:41:02;102340.72;;;20.92;33.89
21109;BME280;10712;52.944;9.098;2023-04-30T11:43:30;102339.13;;;20.90;33.79
21109;BME280;10712;52.944;9.098;2023-04-30T11:48:45;102329.03;;;20.92;32.23
21109;BME280;10712;52.944;9.098;2023-04-30T11:51:19;102323.25;;;20.96;32.14
21109;BME280;10712;52.944;9.098;2023-04-30T11:53:47;102323.63;;;21.03;32.00
21109;BME280;10712;52.944;9.098;2023-04-30T11:56:17;102327.47;;;21.00;32.08
21109;BME280;10712;52.944;9.098;2023-04-30T11:58:46;102331.00;;;21.25;32.91
21109;BME280;10712;52.944;9.098;2023-04-30T12:01:12;102326.06;;;21.18;32.73
21109;BME280;10712;52.944;9.098;2023-04-30T12:03:49;102321.56;;;21.06;33.42
21109;BME280;10712;52.944;9.098;2023-04-30T12:06:24;102318.59;;;21.09;33.41
21109;BME280;10712;52.944;9.098;2023-04-30T12:08:57;102323.78;;;21.12;33.09
21109;BME280;10712;52.944;9.098;2023-04-30T12:11:29;102317.06;;;21.18;33.07
21109;BME280;10712;52.944;9.098;2023-04-30T12:13:59;102314.25;;;21.31;33.23
21109;BME280;10712;52.944;9.098;2023-04-30T12:16:47;102311.03;;;21.26;33.95
21109;BME280;10712;52.944;9.098;2023-04-30T12:19:20;102312.88;;;21.25;33.87
21109;BME280;10712;52.944;9.098;2023-04-30T12:21:47;102309.94;;;21.28;34.07
21109;BME280;10712;52.944;9.098;2023-04-30T12:24:18;102307.13;;;21.30;34.02
21109;BME280;10712;52.944;9.098;2023-04-30T12:26:45;102302.94;;;21.59;34.32
21109;BME280;10712;52.944;9.098;2023-04-30T12:29:16;102306.53;;;21.71;33.76
21109;BME280;10712;52.944;9.098;2023-04-30T12:31:44;102297.50;;;21.92;33.21
21109;BME280;10712;52.944;9.098;2023-04-30T12:34:14;102297.78;;;22.00;33.09
21109;BME280;10712;52.944;9.098;2023-04-30T12:36:41;102297.25;;;21.95;33.42
21109;BME280;10712;52.944;9.098;2023-04-30T12:39:14;102298.88;;;21.87;33.18
21109;BME280;10712;52.944;9.098;2023-04-30T12:41:43;102299.50;;;22.02;32.63
21109;BME280;10712;52.944;9.098;2023-04-30T12:44:25;102286.19;;;22.10;32.52
21109;BME280;10712;52.944;9.098;2023-04-30T12:46:54;102284.13;;;22.34;32.46
21109;BME280;10712;52.944;9.098;2023-04-30T12:49:27;102276.47;;;22.39;32.66
21109;BME280;10712;52.944;9.098;2023-04-30T12:52:11;102271.25;;;22.47;32.55
21109;BME280;10712;52.944;9.098;2023-04-30T12:54:39;102273.53;;;22.63;32.39
21109;BME280;10712;52.944;9.098;2023-04-30T12:57:06;102271.38;;;22.77;32.01
21109;BME280;10712;52.944;9.098;2023-04-30T12:59:39;102268.56;;;22.47;31.70
21109;BME280;10712;52.944;9.098;2023-04-30T13:02:23;102269.31;;;22.38;31.91
21109;BME280;10712;52.944;9.098;2023-04-30T13:04:52;102267.13;;;22.21;32.54
21109;BME280;10712;52.944;9.098;2023-04-30T13:07:18;102265.41;;;22.20;32.67
21109;BME280;10712;52.944;9.098;2023-04-30T13:09:44;102262.31;;;22.24;32.96
21109;BME280;10712;52.944;9.098;2023-04-30T13:12:10;102268.38;;;22.17;33.38
21109;BME280;10712;52.944;9.098;2023-04-30T13:14:36;102268.03;;;21.99;33.44
21109;BME280;10712;52.944;9.098;2023-04-30T13:17:03;102255.97;;;21.92;32.86
21109;BME280;10712;52.944;9.098;2023-04-30T13:19:31;102248.91;;;21.78;33.16